createdAt,value
2023-05-15T00:01:30.716Z,36.35
2023-05-15T00:03:57.437Z,39.42
2023-05-15T00:06:24.162Z,42.38
2023-05-15T00:08:50.990Z,38.17
2023-05-15T00:11:17.817Z,38.47
2023-05-15T00:13:44.774Z,38.33
2023-05-15T00:16:11.802Z,42.05
2023-05-15T00:18:38.612Z,36.60
2023-05-15T00:21:05.401Z,37.33
2023-05-15T00:23:32.124Z,38.63
2023-05-15T00:25:58.793Z,39.63
2023-05-15T00:28:25.653Z,37.67
2023-05-15T00:30:52.483Z,37.00
2023-05-15T00:33:19.331Z,36.67
2023-05-15T00:35:46.219Z,36.72
2023-05-15T00:38:13.061Z,38.03
2023-05-15T00:40:41.487Z,43.10
2023-05-15T00:43:09.832Z,40.33
2023-05-15T00:45:40.531Z,42.05
2023-05-15T00:48:09.677Z,44.70
2023-05-15T00:50:36.990Z,40.08
2023-05-15T00:53:06.049Z,42.70
2023-05-15T00:55:33.938Z,43.10
2023-05-15T00:58:02.111Z,46.33
2023-05-15T01:00:31.078Z,42.42
2023-05-15T01:02:57.875Z,47.30
2023-05-15T01:05:25.123Z,48.05
2023-05-15T01:08:23.863Z,49.40
2023-05-15T01:10:52.091Z,44.72
2023-05-15T01:13:21.777Z,39.97
2023-05-15T01:15:49.538Z,47.67
2023-05-15T01:18:16.947Z,45.83
2023-05-15T01:21:01.659Z,46.53
2023-05-15T01:23:52.318Z,45.63
2023-05-15T01:26:56.337Z,44.90
2023-05-15T01:29:29.660Z,44.40
2023-05-15T01:32:04.132Z,48.78
2023-05-15T01:34:59.432Z,46.80
2023-05-15T01:37:28.876Z,49.55
2023-05-15T01:40:05.020Z,52.08
2023-05-15T01:42:34.289Z,57.45
2023-05-15T01:45:05.737Z,55.78
2023-05-15T01:47:39.324Z,55.85
2023-05-15T01:50:09.799Z,55.28
2023-05-15T01:52:39.866Z,53.95
2023-05-15T01:55:08.597Z,57.22
2023-05-15T01:57:37.041Z,66.78
2023-05-15T02:00:04.192Z,56.00
2023-05-15T02:02:42.097Z,60.70
2023-05-15T02:05:09.937Z,66.10
2023-05-15T02:07:37.991Z,63.38
2023-05-15T02:10:05.555Z,63.45
2023-05-15T02:12:32.920Z,58.65
2023-05-15T02:15:01.490Z,59.50
2023-05-15T02:17:29.646Z,61.42
2023-05-15T02:19:56.477Z,61.50
2023-05-15T02:22:23.133Z,60.28
2023-05-15T02:24:49.836Z,59.65
2023-05-15T02:27:24.857Z,64.43
2023-05-15T02:30:25.820Z,58.03
2023-05-15T02:33:10.585Z,55.60
2023-05-15T02:35:56.269Z,60.97
2023-05-15T02:38:29.024Z,55.70
2023-05-15T02:40:57.892Z,56.72
2023-05-15T02:43:26.210Z,56.97
2023-05-15T02:45:54.194Z,58.42
2023-05-15T02:48:21.790Z,61.55
2023-05-15T02:50:48.593Z,55.72
2023-05-15T02:53:16.158Z,53.17
2023-05-15T02:55:43.046Z,54.33
2023-05-15T02:58:09.957Z,55.40
2023-05-15T03:00:36.664Z,54.22
2023-05-15T03:03:03.480Z,58.63
2023-05-15T03:05:30.184Z,58.00
2023-05-15T03:07:58.436Z,50.58
2023-05-15T03:10:25.171Z,54.60
2023-05-15T03:12:51.919Z,54.00
2023-05-15T03:15:19.187Z,50.25
2023-05-15T03:17:46.070Z,50.20
2023-05-15T03:20:14.431Z,52.83
2023-05-15T03:22:42.034Z,51.00
2023-05-15T03:25:11.473Z,60.75
2023-05-15T03:27:38.575Z,43.92
2023-05-15T03:30:06.450Z,41.55
2023-05-15T03:32:33.265Z,48.53
2023-05-15T03:34:59.991Z,48.45
2023-05-15T03:37:26.864Z,45.45
2023-05-15T03:39:53.704Z,49.00
2023-05-15T03:42:23.406Z,49.50
2023-05-15T03:44:50.881Z,49.92
2023-05-15T03:47:18.158Z,52.90
2023-05-15T03:49:46.040Z,53.25
2023-05-15T03:52:12.890Z,49.65
2023-05-15T03:54:40.155Z,47.75
2023-05-15T03:57:10.400Z,50.75
2023-05-15T03:59:37.098Z,49.53
2023-05-15T04:02:05.527Z,49.20
2023-05-15T04:04:32.670Z,51.08
2023-05-15T04:06:59.878Z,40.17
2023-05-15T04:09:26.577Z,43.17
2023-05-15T04:11:53.251Z,44.65
2023-05-15T04:14:19.910Z,43.10
2023-05-15T04:16:46.811Z,46.08
2023-05-15T04:19:13.999Z,44.88
2023-05-15T04:21:40.782Z,46.70
2023-05-15T04:24:08.351Z,44.92
2023-05-15T04:26:35.097Z,46.13
2023-05-15T04:29:04.595Z,44.25
2023-05-15T04:31:32.084Z,38.58
2023-05-15T04:34:00.304Z,41.45
2023-05-15T04:36:27.226Z,40.88
2023-05-15T04:38:53.915Z,37.63
2023-05-15T04:41:20.770Z,40.20
2023-05-15T04:43:47.524Z,38.60
2023-05-15T04:46:14.295Z,38.28
2023-05-15T04:48:41.004Z,41.22
2023-05-15T04:51:07.702Z,47.67
2023-05-15T04:53:34.440Z,42.38
2023-05-15T04:56:01.162Z,41.70
2023-05-15T04:58:27.885Z,36.88
2023-05-15T05:00:54.591Z,35.88
2023-05-15T05:03:21.340Z,37.50
2023-05-15T05:05:48.096Z,35.42
2023-05-15T05:08:14.819Z,39.40
2023-05-15T05:10:41.560Z,42.35
2023-05-15T05:13:08.250Z,38.80
2023-05-15T05:15:35.027Z,35.85
2023-05-15T05:18:01.860Z,44.00
2023-05-15T05:20:28.588Z,37.83
2023-05-15T05:22:55.549Z,37.28
2023-05-15T05:25:22.495Z,38.60
2023-05-15T05:27:49.501Z,39.17
2023-05-15T05:30:16.294Z,37.08
2023-05-15T05:32:43.080Z,38.42
2023-05-15T05:35:09.934Z,38.83
2023-05-15T05:37:38.148Z,40.30
2023-05-15T05:40:08.642Z,36.72
2023-05-15T05:42:35.473Z,39.10
2023-05-15T05:45:02.241Z,36.20
2023-05-15T05:47:29.055Z,37.60
2023-05-15T05:49:55.897Z,40.13
2023-05-15T05:52:22.641Z,38.03
2023-05-15T05:54:49.420Z,36.22
2023-05-15T05:57:16.179Z,34.88
2023-05-15T05:59:43.050Z,37.92
2023-05-15T06:02:10.193Z,40.42
2023-05-15T06:04:37.220Z,45.53
2023-05-15T06:07:04.249Z,39.45
2023-05-15T06:09:30.992Z,44.92
2023-05-15T06:11:57.727Z,40.65
2023-05-15T06:14:24.380Z,41.97
2023-05-15T06:16:51.136Z,41.72
2023-05-15T06:19:18.005Z,43.03
2023-05-15T06:21:44.772Z,39.45
2023-05-15T06:24:11.420Z,42.30
2023-05-15T06:26:38.249Z,44.08
2023-05-15T06:29:05.014Z,42.45
2023-05-15T06:31:32.086Z,43.17
2023-05-15T06:33:59.779Z,48.83
2023-05-15T06:36:26.433Z,47.33
2023-05-15T06:38:53.075Z,41.80
2023-05-15T06:41:19.798Z,43.42
2023-05-15T06:43:46.539Z,41.08
2023-05-15T06:46:16.160Z,46.35
2023-05-15T06:48:42.912Z,44.22
2023-05-15T06:51:09.724Z,48.50
2023-05-15T06:53:36.704Z,44.78
2023-05-15T06:56:03.449Z,48.95
2023-05-15T06:58:31.202Z,50.80
2023-05-15T07:00:59.413Z,48.47
2023-05-15T07:03:26.619Z,46.33
2023-05-15T07:05:53.754Z,45.13
2023-05-15T07:08:20.616Z,46.42
2023-05-15T07:10:48.473Z,52.33
2023-05-15T07:13:18.176Z,46.35
2023-05-15T07:15:45.041Z,43.35
2023-05-15T07:18:11.844Z,46.53
2023-05-15T07:20:39.198Z,46.00
2023-05-15T07:23:06.032Z,49.97
2023-05-15T07:25:32.846Z,48.35
2023-05-15T07:27:59.501Z,46.65
2023-05-15T07:30:26.594Z,47.17
2023-05-15T07:32:53.574Z,51.92
2023-05-15T07:35:20.714Z,48.17
2023-05-15T07:37:47.531Z,47.65
2023-05-15T07:40:15.497Z,49.33
2023-05-15T07:42:44.113Z,46.38
2023-05-15T07:45:11.177Z,53.60
2023-05-15T07:47:38.093Z,53.13
2023-05-15T07:50:05.271Z,48.17
2023-05-15T07:52:32.184Z,53.90
2023-05-15T07:54:59.207Z,48.67
2023-05-15T07:57:26.410Z,49.90
2023-05-15T07:59:53.191Z,48.03
2023-05-15T08:02:19.963Z,45.33
2023-05-15T08:04:46.674Z,45.95
2023-05-15T08:07:14.024Z,48.80
2023-05-15T08:09:40.806Z,46.03
2023-05-15T08:12:20.748Z,44.35
2023-05-15T08:14:51.806Z,45.13
2023-05-15T08:17:19.337Z,42.95
2023-05-15T08:19:46.391Z,42.67
2023-05-15T08:22:13.238Z,38.92
2023-05-15T08:24:40.703Z,32.60
2023-05-15T08:27:08.734Z,41.38
2023-05-15T08:29:38.601Z,36.28
2023-05-15T08:32:07.786Z,39.45
2023-05-15T08:34:34.598Z,37.65
2023-05-15T08:37:01.773Z,35.92
2023-05-15T08:39:28.818Z,34.42
2023-05-15T08:42:24.854Z,33.35
2023-05-15T08:44:51.654Z,35.05
2023-05-15T08:47:20.666Z,33.50
2023-05-15T08:50:07.511Z,33.05
2023-05-15T08:52:35.192Z,33.90
2023-05-15T08:55:02.975Z,31.75
2023-05-15T08:57:30.102Z,32.80
2023-05-15T08:59:57.643Z,32.13
2023-05-15T09:02:26.050Z,28.20
2023-05-15T09:04:52.981Z,31.00
2023-05-15T09:07:20.561Z,29.20
2023-05-15T09:09:47.970Z,28.10
2023-05-15T09:12:15.991Z,27.90
2023-05-15T09:14:43.772Z,25.88
2023-05-15T09:17:11.802Z,28.45
2023-05-15T09:19:42.498Z,26.25
2023-05-15T09:22:24.140Z,27.42
2023-05-15T09:24:53.131Z,27.20
2023-05-15T09:27:20.853Z,26.42
2023-05-15T09:29:47.623Z,25.65
2023-05-15T09:32:15.608Z,23.65
2023-05-15T09:34:44.348Z,27.55
2023-05-15T09:37:27.020Z,21.75
2023-05-15T09:39:53.820Z,25.77
2023-05-15T09:42:20.595Z,23.25
2023-05-15T09:44:47.298Z,23.35
2023-05-15T09:47:16.689Z,22.30
2023-05-15T09:49:47.253Z,22.02
2023-05-15T09:52:16.204Z,20.38
2023-05-15T09:54:49.523Z,21.88
2023-05-15T09:57:22.172Z,17.85
2023-05-15T09:59:49.621Z,17.08
2023-05-15T10:02:34.667Z,18.77
2023-05-15T10:05:01.672Z,20.02
2023-05-15T10:07:33.254Z,17.33
2023-05-15T10:10:01.143Z,19.75
2023-05-15T10:12:29.073Z,18.38
2023-05-15T10:14:58.343Z,21.10
2023-05-15T10:17:27.710Z,16.15
2023-05-15T10:19:59.105Z,18.52
2023-05-15T10:22:29.817Z,14.85
2023-05-15T10:25:33.442Z,16.85
2023-05-15T10:28:01.224Z,15.80
2023-05-15T10:30:28.992Z,12.70
2023-05-15T10:32:57.245Z,11.45
2023-05-15T10:35:24.831Z,13.57
2023-05-15T10:37:51.700Z,12.45
2023-05-15T10:40:19.106Z,12.23
2023-05-15T10:42:47.560Z,15.05
2023-05-15T10:45:14.550Z,11.25
2023-05-15T10:47:42.694Z,11.55
2023-05-15T10:50:11.556Z,16.52
2023-05-15T10:52:39.168Z,17.13
2023-05-15T10:55:13.682Z,12.93
2023-05-15T10:57:40.628Z,11.13
2023-05-15T11:00:22.586Z,14.18
2023-05-15T11:02:53.552Z,11.95
2023-05-15T11:05:20.539Z,11.57
2023-05-15T11:08:17.728Z,14.82
2023-05-15T11:10:44.820Z,11.95
2023-05-15T11:13:12.032Z,12.90
2023-05-15T11:15:46.202Z,11.18
2023-05-15T11:18:13.175Z,11.95
2023-05-15T11:20:41.441Z,11.82
2023-05-15T11:23:09.048Z,13.48
2023-05-15T11:25:37.135Z,10.20
2023-05-15T11:28:05.529Z,12.70
2023-05-15T11:30:39.627Z,11.88
2023-05-15T11:33:13.434Z,13.10
2023-05-15T11:35:43.895Z,11.43
2023-05-15T11:38:10.540Z,16.55
2023-05-15T11:41:06.794Z,16.77
2023-05-15T11:43:35.901Z,10.02
2023-05-15T11:46:10.298Z,8.15
2023-05-15T11:48:45.039Z,8.82
2023-05-15T11:51:22.037Z,9.57
2023-05-15T11:53:56.237Z,9.85
2023-05-15T11:56:25.089Z,10.07
2023-05-15T11:58:56.936Z,8.52
2023-05-15T12:01:24.051Z,10.88
2023-05-15T12:03:51.724Z,11.77
2023-05-15T12:06:18.744Z,18.25
2023-05-15T12:08:52.274Z,12.63
2023-05-15T12:11:25.178Z,11.65
2023-05-15T12:13:55.771Z,14.90
2023-05-15T12:16:26.656Z,11.13
2023-05-15T12:18:53.780Z,20.33
2023-05-15T12:21:20.994Z,13.23
2023-05-15T12:24:07.183Z,10.80
2023-05-15T12:26:35.772Z,13.38
2023-05-15T12:29:03.352Z,13.75
2023-05-15T12:31:30.665Z,16.73
2023-05-15T12:33:57.644Z,13.52
2023-05-15T12:36:27.196Z,11.55
2023-05-15T12:38:54.124Z,13.00
2023-05-15T12:41:21.213Z,16.30
2023-05-15T12:43:48.693Z,13.02
2023-05-15T12:46:15.466Z,10.40
2023-05-15T12:48:42.258Z,10.55
2023-05-15T12:51:09.436Z,12.15
2023-05-15T12:53:39.381Z,10.43
2023-05-15T12:56:06.941Z,13.95
2023-05-15T12:58:33.858Z,11.27
2023-05-15T13:01:03.214Z,13.68
2023-05-15T13:03:30.566Z,11.70
2023-05-15T13:05:58.219Z,12.23
2023-05-15T13:08:25.026Z,12.30
2023-05-15T13:10:59.240Z,14.30
2023-05-15T13:13:42.178Z,16.90
2023-05-15T13:16:29.602Z,13.20
2023-05-15T13:18:59.646Z,11.43
2023-05-15T13:21:26.358Z,12.95
2023-05-15T13:23:53.558Z,11.23
2023-05-15T13:26:20.762Z,12.52
2023-05-15T13:28:48.444Z,9.40
2023-05-15T13:31:15.337Z,13.25
2023-05-15T13:33:42.061Z,11.40
2023-05-15T13:36:09.027Z,13.95
2023-05-15T13:38:35.866Z,10.30
2023-05-15T13:41:03.632Z,12.75
2023-05-15T13:43:30.669Z,10.98
2023-05-15T13:45:57.496Z,10.77
2023-05-15T13:48:24.240Z,10.93
2023-05-15T13:50:51.181Z,14.27
2023-05-15T13:53:18.261Z,11.98
2023-05-15T13:55:46.022Z,10.95
2023-05-15T13:58:13.295Z,11.30
2023-05-15T14:00:42.417Z,12.98
2023-05-15T14:03:09.366Z,15.18
2023-05-15T14:05:36.714Z,12.88
2023-05-15T14:08:03.600Z,8.90
2023-05-15T14:10:30.446Z,11.93
2023-05-15T14:12:58.950Z,12.93
2023-05-15T14:15:27.373Z,11.10
2023-05-15T14:17:54.326Z,12.45
2023-05-15T14:20:21.148Z,11.93
2023-05-15T14:22:47.804Z,13.07
2023-05-15T14:25:14.473Z,11.60
2023-05-15T14:27:41.328Z,12.32
2023-05-15T14:30:08.581Z,11.20
2023-05-15T14:32:35.354Z,11.57
2023-05-15T14:35:02.563Z,11.70
2023-05-15T14:37:29.277Z,11.32
2023-05-15T14:39:56.104Z,12.98
2023-05-15T14:42:22.962Z,11.75
2023-05-15T14:44:49.661Z,9.75
2023-05-15T14:47:16.762Z,10.07
2023-05-15T14:49:43.620Z,10.95
2023-05-15T14:52:11.583Z,8.18
2023-05-15T14:54:39.643Z,9.02
2023-05-15T14:57:07.198Z,7.38
2023-05-15T14:59:34.137Z,5.95
2023-05-15T15:02:01.144Z,7.07
2023-05-15T15:04:30.298Z,9.02
2023-05-15T15:06:57.283Z,6.70
2023-05-15T15:09:25.613Z,9.43
2023-05-15T15:11:53.820Z,7.78
2023-05-15T15:14:20.785Z,7.38
2023-05-15T15:16:47.818Z,9.23
2023-05-15T15:19:16.814Z,10.45
2023-05-15T15:21:45.032Z,8.80
2023-05-15T15:24:11.816Z,8.60
2023-05-15T15:26:38.507Z,11.20
2023-05-15T15:29:05.701Z,10.77
2023-05-15T15:31:32.478Z,10.77
2023-05-15T15:33:59.743Z,13.73
2023-05-15T15:36:26.682Z,11.45
2023-05-15T15:38:53.408Z,9.43
2023-05-15T15:41:21.646Z,8.90
2023-05-15T15:43:48.483Z,11.57
2023-05-15T15:46:15.314Z,8.48
2023-05-15T15:48:42.101Z,9.90
2023-05-15T15:51:08.987Z,8.75
2023-05-15T15:53:35.669Z,12.35
2023-05-15T15:56:02.490Z,9.98
2023-05-15T15:58:30.070Z,8.75
2023-05-15T16:00:57.631Z,10.05
2023-05-15T16:03:24.814Z,10.73
2023-05-15T16:05:51.872Z,11.73
2023-05-15T16:08:18.799Z,12.15
2023-05-15T16:10:45.643Z,11.20
2023-05-15T16:13:12.381Z,10.50
2023-05-15T16:15:39.096Z,11.25
2023-05-15T16:18:05.862Z,9.82
2023-05-15T16:20:35.047Z,8.27
2023-05-15T16:23:02.159Z,10.18
2023-05-15T16:25:28.930Z,10.05
2023-05-15T16:27:55.656Z,9.73
2023-05-15T16:30:23.443Z,9.80
2023-05-15T16:32:53.206Z,10.40
2023-05-15T16:35:22.170Z,10.25
2023-05-15T16:37:49.107Z,12.60
2023-05-15T16:42:43.011Z,13.75
2023-05-15T16:45:10.094Z,11.35
2023-05-15T16:47:38.792Z,10.10
2023-05-15T16:50:08.736Z,10.10
2023-05-15T16:52:35.912Z,10.77
2023-05-15T16:55:03.379Z,15.02
2023-05-15T16:57:30.178Z,11.07
2023-05-15T16:59:57.365Z,9.90
2023-05-15T17:02:24.145Z,13.77
2023-05-15T17:04:51.093Z,10.07
2023-05-15T17:07:17.848Z,14.60
2023-05-15T17:09:44.679Z,10.60
2023-05-15T17:12:11.664Z,9.98
2023-05-15T17:14:38.697Z,9.95
2023-05-15T17:17:05.564Z,10.20
2023-05-15T17:19:34.428Z,10.30
2023-05-15T17:22:01.133Z,11.98
2023-05-15T17:24:38.476Z,10.57
2023-05-15T17:27:15.625Z,11.88
2023-05-15T17:29:42.963Z,8.02
2023-05-15T17:32:09.773Z,10.43
2023-05-15T17:34:36.720Z,11.55
2023-05-15T17:37:03.748Z,7.97
2023-05-15T17:39:30.457Z,9.18
2023-05-15T17:41:57.097Z,9.95
2023-05-15T17:44:27.950Z,11.63
2023-05-15T17:46:54.968Z,10.73
2023-05-15T17:49:22.126Z,8.88
2023-05-15T17:51:48.883Z,9.88
2023-05-15T17:54:15.768Z,9.43
2023-05-15T17:56:42.576Z,15.07
2023-05-15T17:59:09.384Z,9.38
2023-05-15T18:01:36.305Z,8.05
2023-05-15T18:04:04.196Z,8.45
2023-05-15T18:06:34.329Z,8.93
2023-05-15T18:09:01.288Z,11.18
2023-05-15T18:11:28.039Z,8.50
2023-05-15T18:13:55.007Z,8.85
2023-05-15T18:16:21.739Z,9.40
2023-05-15T18:18:49.372Z,6.97
2023-05-15T18:21:16.422Z,8.23
2023-05-15T18:23:43.080Z,7.72
2023-05-15T18:26:10.414Z,6.20
2023-05-15T18:28:37.112Z,6.55
2023-05-15T18:31:03.851Z,6.10
2023-05-15T18:33:30.652Z,7.90
2023-05-15T18:35:57.406Z,8.18
2023-05-15T18:38:24.160Z,6.57
2023-05-15T18:40:51.739Z,6.60
2023-05-15T18:43:18.380Z,8.40
2023-05-15T18:45:45.816Z,6.95
2023-05-15T18:48:12.568Z,8.27
2023-05-15T18:50:39.532Z,9.80
2023-05-15T18:53:07.156Z,8.85
2023-05-15T18:55:34.148Z,10.20
2023-05-15T18:58:00.942Z,12.93
2023-05-15T19:00:38.157Z,12.07
2023-05-15T19:03:06.902Z,12.93
2023-05-15T19:05:34.127Z,13.52
2023-05-15T19:08:01.858Z,13.52
2023-05-15T19:10:29.490Z,15.63
2023-05-15T19:12:57.177Z,13.35
2023-05-15T19:15:24.662Z,14.88
2023-05-15T19:17:51.826Z,12.98
2023-05-15T19:20:18.866Z,14.90
2023-05-15T19:22:46.116Z,14.05
2023-05-15T19:25:12.895Z,14.02
2023-05-15T19:27:39.728Z,16.20
2023-05-15T19:30:07.597Z,15.32
2023-05-15T19:32:34.440Z,12.70
2023-05-15T19:35:01.452Z,11.98
2023-05-15T19:37:28.176Z,11.50
2023-05-15T19:39:54.929Z,10.75
2023-05-15T19:42:21.603Z,9.32
2023-05-15T19:44:48.285Z,8.80
2023-05-15T19:47:15.011Z,7.53
2023-05-15T19:49:42.408Z,8.52
2023-05-15T19:52:09.438Z,7.05
2023-05-15T19:54:36.158Z,6.22
2023-05-15T19:57:03.067Z,7.68
2023-05-15T19:59:29.967Z,7.13
2023-05-15T20:01:56.876Z,9.23
2023-05-15T20:04:23.660Z,6.38
2023-05-15T20:06:50.519Z,6.15
2023-05-15T20:09:19.409Z,7.13
2023-05-15T20:11:46.197Z,7.60
2023-05-15T20:14:14.902Z,7.95
2023-05-15T20:16:41.763Z,6.45
2023-05-15T20:19:10.765Z,6.40
2023-05-15T20:21:37.909Z,7.45
2023-05-15T20:24:04.827Z,6.03
2023-05-15T20:26:31.672Z,5.97
2023-05-15T20:28:58.385Z,4.88
2023-05-15T20:31:25.108Z,6.15
2023-05-15T20:33:52.114Z,5.55
2023-05-15T20:36:19.088Z,4.45
2023-05-15T20:38:46.906Z,5.50
2023-05-15T20:41:13.663Z,6.18
2023-05-15T20:43:40.308Z,4.15
2023-05-15T20:46:10.197Z,6.10
2023-05-15T20:48:37.605Z,4.75
2023-05-15T20:51:04.407Z,4.07
2023-05-15T20:53:32.995Z,5.10
2023-05-15T20:56:00.022Z,3.50
2023-05-15T20:58:27.120Z,3.70
2023-05-15T21:00:53.891Z,4.35
2023-05-15T21:03:20.743Z,2.83
2023-05-15T21:05:49.408Z,4.47
2023-05-15T21:08:16.211Z,1.92
2023-05-15T21:10:43.002Z,2.58
2023-05-15T21:13:09.736Z,1.65
2023-05-15T21:15:37.236Z,1.83
2023-05-15T21:18:04.173Z,1.67
2023-05-15T21:20:32.861Z,3.25
2023-05-15T21:23:01.032Z,2.28
2023-05-15T21:25:27.758Z,2.35
2023-05-15T21:27:55.373Z,2.33
2023-05-15T21:30:22.201Z,2.88
2023-05-15T21:32:48.916Z,2.40
2023-05-15T21:35:15.933Z,2.35
2023-05-15T21:37:42.649Z,3.13
2023-05-15T21:40:10.079Z,2.42
2023-05-15T21:42:36.832Z,2.13
2023-05-15T21:45:06.074Z,1.50
2023-05-15T21:47:33.524Z,2.17
2023-05-15T21:50:00.546Z,2.05
2023-05-15T21:52:27.250Z,1.25
2023-05-15T21:54:53.943Z,2.08
2023-05-15T21:57:20.589Z,2.30
2023-05-15T21:59:47.492Z,1.48
2023-05-15T22:02:14.151Z,1.10
2023-05-15T22:04:41.407Z,1.50
2023-05-15T22:07:08.178Z,3.00
2023-05-15T22:09:34.914Z,1.83
2023-05-15T22:12:01.781Z,1.65
2023-05-15T22:14:28.481Z,1.35
2023-05-15T22:16:55.259Z,1.95
2023-05-15T22:21:55.822Z,3.05
2023-05-15T22:24:22.522Z,1.45
2023-05-15T22:26:49.169Z,1.02
2023-05-15T22:29:16.007Z,3.53
2023-05-15T22:31:42.669Z,2.38
2023-05-15T22:34:09.458Z,3.03
2023-05-15T22:36:36.617Z,2.80
2023-05-15T22:39:04.287Z,3.63
2023-05-15T22:41:31.425Z,4.13
2023-05-15T22:43:58.121Z,7.05
2023-05-15T22:46:24.998Z,6.18
2023-05-15T22:48:53.042Z,4.40
2023-05-15T22:51:20.424Z,5.28
2023-05-15T22:53:47.124Z,6.47
2023-05-15T22:56:13.801Z,6.68
2023-05-15T22:58:40.578Z,9.07
2023-05-15T23:01:07.928Z,9.02
2023-05-15T23:03:34.796Z,6.15
2023-05-15T23:06:01.558Z,10.35
2023-05-15T23:08:28.248Z,7.97
2023-05-15T23:10:56.112Z,7.53
2023-05-15T23:13:23.500Z,7.50
2023-05-15T23:15:50.367Z,5.50
2023-05-15T23:18:17.269Z,6.75
2023-05-15T23:20:44.004Z,11.50
2023-05-15T23:23:11.080Z,11.48
2023-05-15T23:25:38.393Z,6.65
2023-05-15T23:28:05.343Z,7.00
2023-05-15T23:30:32.081Z,6.70
2023-05-15T23:32:58.883Z,7.13
2023-05-15T23:35:25.881Z,12.10
2023-05-15T23:37:52.630Z,8.45
2023-05-15T23:40:19.552Z,12.73
2023-05-15T23:42:46.772Z,7.38
2023-05-15T23:45:16.489Z,11.10
2023-05-15T23:47:43.228Z,12.82
2023-05-15T23:50:10.257Z,11.57
2023-05-15T23:52:37.027Z,10.82
2023-05-15T23:55:04.053Z,16.25
2023-05-15T23:57:30.889Z,10.00
2023-05-15T23:59:57.752Z,13.20
